Time;durP1;ratioP1;P1;durP2;ratioP2;P2;SDS_P1;SDS_P2;PMS_P1;PMS_P2;Temp;Humidity;BMP_temperature;BMP_pressure;BME280_temperature;BME280_humidity;BME280_pressure;Samples;Min_cycle;Max_cycle;Signal;HPM_P1;HPM_P2
2022/03/24 00:00:36;;;;;;;24.58;18.70;;;;;;;;;;5054269;28;20059;-77
2022/03/24 00:03:02;;;;;;;25.15;18.25;;;;;;;;;;5054576;28;20041;-77
2022/03/24 00:05:30;;;;;;;25.60;17.85;;;;;;;;;;5054153;28;20049;-77
2022/03/24 00:07:56;;;;;;;28.80;20.10;;;;;;;;;;5054221;28;20048;-77
2022/03/24 00:10:23;;;;;;;24.30;18.48;;;;;;;;;;5054369;28;20049;-77
2022/03/24 00:12:55;;;;;;;26.05;19.63;;;;;;;;;;5054083;28;20488;-77
2022/03/24 00:15:22;;;;;;;25.17;19.13;;;;;;;;;;5054377;28;20057;-77
2022/03/24 00:17:49;;;;;;;27.25;20.08;;;;;;;;;;5053018;28;20099;-77
2022/03/24 00:20:15;;;;;;;22.52;18.55;;;;;;;;;;5053207;28;20106;-77
2022/03/24 00:22:42;;;;;;;23.88;18.90;;;;;;;;;;5053777;28;20075;-77
2022/03/24 00:25:10;;;;;;;23.95;18.45;;;;;;;;;;5054222;28;20040;-77
2022/03/24 00:27:37;;;;;;;22.30;17.92;;;;;;;;;;5054114;28;20056;-76
2022/03/24 00:30:03;;;;;;;25.30;19.20;;;;;;;;;;5052489;28;20493;-78
2022/03/24 00:32:30;;;;;;;21.92;17.90;;;;;;;;;;5052398;28;20049;-77
2022/03/24 00:34:56;;;;;;;25.05;18.05;;;;;;;;;;5053876;28;20054;-77
2022/03/24 00:37:25;;;;;;;28.52;20.08;;;;;;;;;;5053543;28;20076;-77
2022/03/24 00:39:51;;;;;;;24.77;19.35;;;;;;;;;;5053397;28;20555;-78
2022/03/24 00:42:21;;;;;;;27.08;20.13;;;;;;;;;;5052541;28;20045;-78
2022/03/24 00:44:51;;;;;;;22.73;18.60;;;;;;;;;;5045369;28;20045;-78
2022/03/24 00:47:17;;;;;;;24.85;18.92;;;;;;;;;;5053351;28;20052;-77
2022/03/24 00:49:44;;;;;;;24.13;18.52;;;;;;;;;;5053279;28;20053;-77
2022/03/24 00:52:11;;;;;;;24.02;19.42;;;;;;;;;;5053442;28;20057;-77
2022/03/24 00:54:38;;;;;;;23.67;18.95;;;;;;;;;;5053333;28;20056;-77
2022/03/24 00:57:06;;;;;;;24.95;18.80;;;;;;;;;;5053354;28;20060;-77
2022/03/24 00:59:33;;;;;;;26.63;18.73;;;;;;;;;;5051990;28;20053;-77
2022/03/24 01:02:00;;;;;;;24.70;18.92;;;;;;;;;;5051822;28;20045;-77
2022/03/24 01:04:26;;;;;;;24.88;18.23;;;;;;;;;;5053066;28;20049;-77
2022/03/24 01:06:52;;;;;;;22.52;18.25;;;;;;;;;;5053656;28;20049;-77
2022/03/24 01:09:19;;;;;;;23.17;17.95;;;;;;;;;;5053729;28;20052;-78
2022/03/24 01:11:45;;;;;;;24.13;18.42;;;;;;;;;;5053180;28;20060;-78
2022/03/24 01:14:16;;;;;;;24.77;17.80;;;;;;;;;;5052907;28;20054;-78
2022/03/24 01:16:43;;;;;;;26.48;18.98;;;;;;;;;;5053228;28;20049;-78
2022/03/24 01:19:10;;;;;;;21.67;17.67;;;;;;;;;;5052701;28;20041;-78
2022/03/24 01:21:38;;;;;;;23.65;17.67;;;;;;;;;;5051755;28;20041;-78
2022/03/24 01:24:05;;;;;;;23.58;17.17;;;;;;;;;;5051764;28;20146;-78
2022/03/24 01:26:31;;;;;;;21.23;17.15;;;;;;;;;;5052764;28;20127;-78
2022/03/24 01:28:58;;;;;;;23.08;17.48;;;;;;;;;;5052633;28;20053;-77
2022/03/24 01:31:25;;;;;;;23.52;17.88;;;;;;;;;;5050984;28;20409;-77
2022/03/24 01:33:51;;;;;;;22.70;18.08;;;;;;;;;;5052307;28;20049;-77
2022/03/24 01:36:18;;;;;;;22.70;17.65;;;;;;;;;;5052796;28;20049;-77
2022/03/24 01:38:44;;;;;;;23.25;17.20;;;;;;;;;;5052558;28;20504;-77
2022/03/24 01:41:11;;;;;;;22.77;17.60;;;;;;;;;;5052553;28;20041;-77
2022/03/24 01:43:37;;;;;;;22.45;17.30;;;;;;;;;;5052766;28;20044;-77
2022/03/24 01:46:04;;;;;;;23.88;18.00;;;;;;;;;;5052595;28;20111;-77
2022/03/24 01:48:30;;;;;;;23.45;17.10;;;;;;;;;;5051268;28;20052;-77
2022/03/24 01:50:57;;;;;;;22.45;17.23;;;;;;;;;;5050909;28;20053;-77
2022/03/24 01:53:23;;;;;;;21.92;17.48;;;;;;;;;;5052504;28;20052;-77
2022/03/24 01:55:51;;;;;;;23.85;18.70;;;;;;;;;;5052240;28;20057;-77
2022/03/24 01:58:17;;;;;;;21.13;17.70;;;;;;;;;;5050859;28;20060;-77
2022/03/24 02:00:44;;;;;;;23.08;18.10;;;;;;;;;;5051858;28;20386;-77
2022/03/24 02:03:14;;;;;;;23.15;18.20;;;;;;;;;;5052282;28;20052;-77
2022/03/24 02:05:42;;;;;;;22.33;16.90;;;;;;;;;;5051951;28;20571;-77
2022/03/24 02:08:08;;;;;;;21.25;16.63;;;;;;;;;;5050990;28;20049;-77
2022/03/24 02:10:35;;;;;;;21.60;17.27;;;;;;;;;;5050914;28;20122;-77
2022/03/24 02:13:03;;;;;;;21.88;17.13;;;;;;;;;;5052178;28;20103;-78
2022/03/24 02:15:30;;;;;;;22.90;16.98;;;;;;;;;;5051824;28;20123;-78
2022/03/24 02:17:57;;;;;;;21.20;16.80;;;;;;;;;;5052083;28;20041;-78
2022/03/24 02:20:25;;;;;;;21.90;17.27;;;;;;;;;;5051944;28;20106;-78
2022/03/24 02:22:51;;;;;;;22.33;17.95;;;;;;;;;;5051939;28;20041;-78
2022/03/24 02:25:18;;;;;;;22.15;17.70;;;;;;;;;;5052029;28;20181;-78
2022/03/24 02:27:47;;;;;;;19.70;17.08;;;;;;;;;;5051647;28;20053;-77
2022/03/24 02:30:13;;;;;;;21.17;15.85;;;;;;;;;;5050594;28;20041;-77
2022/03/24 02:32:40;;;;;;;20.40;16.17;;;;;;;;;;5051495;28;20056;-77
2022/03/24 02:35:07;;;;;;;20.38;15.75;;;;;;;;;;5050240;28;20416;-77
2022/03/24 02:37:33;;;;;;;21.25;16.27;;;;;;;;;;5048177;28;20049;-77
2022/03/24 02:40:00;;;;;;;21.15;16.15;;;;;;;;;;5047632;28;20044;-77
2022/03/24 02:42:29;;;;;;;21.60;15.23;;;;;;;;;;5051378;28;20106;-76
2022/03/24 02:44:57;;;;;;;21.73;15.95;;;;;;;;;;5051443;28;20049;-76
2022/03/24 02:47:23;;;;;;;21.67;16.02;;;;;;;;;;5050419;28;20099;-76
2022/03/24 02:49:51;;;;;;;21.65;16.92;;;;;;;;;;5051341;28;20091;-76
2022/03/24 02:52:17;;;;;;;20.30;15.60;;;;;;;;;;5051641;28;20099;-76
2022/03/24 02:54:44;;;;;;;23.17;17.13;;;;;;;;;;5051503;28;20448;-76
2022/03/24 02:57:11;;;;;;;22.65;16.77;;;;;;;;;;5051500;28;20041;-76
2022/03/24 02:59:37;;;;;;;21.67;17.33;;;;;;;;;;5051417;28;20052;-76
2022/03/24 03:02:15;;;;;;;23.00;17.52;;;;;;;;;;5051562;28;20041;-76
2022/03/24 03:04:42;;;;;;;23.20;16.95;;;;;;;;;;5051597;28;20052;-76
2022/03/24 03:07:09;;;;;;;22.42;17.23;;;;;;;;;;5037519;28;20052;-76
2022/03/24 03:09:36;;;;;;;24.02;17.30;;;;;;;;;;5050228;28;20061;-76
2022/03/24 03:12:03;;;;;;;23.10;17.30;;;;;;;;;;5051443;28;20049;-76
2022/03/24 03:14:30;;;;;;;22.20;18.13;;;;;;;;;;5051224;28;20566;-76
2022/03/24 03:16:57;;;;;;;20.88;17.23;;;;;;;;;;5051415;28;20057;-76
2022/03/24 03:19:24;;;;;;;21.63;17.00;;;;;;;;;;5051206;28;20045;-76
2022/03/24 03:21:51;;;;;;;22.58;17.80;;;;;;;;;;5051428;28;20118;-76
2022/03/24 03:24:18;;;;;;;23.67;17.45;;;;;;;;;;5051012;28;20107;-76
2022/03/24 03:26:45;;;;;;;24.63;18.23;;;;;;;;;;5051448;28;20041;-77
2022/03/24 03:29:11;;;;;;;21.75;17.40;;;;;;;;;;5051257;28;20053;-76
2022/03/24 03:31:38;;;;;;;22.38;18.00;;;;;;;;;;5050861;28;20458;-77
2022/03/24 03:34:05;;;;;;;25.65;18.50;;;;;;;;;;5051017;28;20049;-77
2022/03/24 03:36:32;;;;;;;22.25;17.42;;;;;;;;;;5050962;28;20049;-77
2022/03/24 03:38:59;;;;;;;19.30;16.10;;;;;;;;;;5049961;28;20459;-77
2022/03/24 03:41:28;;;;;;;22.27;17.00;;;;;;;;;;5051134;28;20049;-77
2022/03/24 03:43:55;;;;;;;22.30;17.25;;;;;;;;;;5050927;28;20045;-77
2022/03/24 03:46:23;;;;;;;21.05;16.80;;;;;;;;;;5050803;28;20052;-77
2022/03/24 03:48:49;;;;;;;23.13;17.88;;;;;;;;;;5049965;28;20122;-77
2022/03/24 03:51:16;;;;;;;20.85;16.10;;;;;;;;;;5049699;28;20083;-77
2022/03/24 03:53:42;;;;;;;20.88;16.10;;;;;;;;;;5049575;28;20107;-77
2022/03/24 03:56:09;;;;;;;21.85;17.10;;;;;;;;;;5052233;28;20053;-77
2022/03/24 03:58:36;;;;;;;23.08;17.55;;;;;;;;;;5054693;28;20118;-77
2022/03/24 04:01:03;;;;;;;21.43;17.20;;;;;;;;;;5054626;28;20049;-78
2022/03/24 04:03:31;;;;;;;20.85;16.23;;;;;;;;;;5054801;28;20358;-78
2022/03/24 04:06:04;;;;;;;22.17;17.27;;;;;;;;;;5053026;28;20053;-78
2022/03/24 04:08:31;;;;;;;20.33;16.50;;;;;;;;;;5054451;28;20099;-76
2022/03/24 04:10:58;;;;;;;20.92;16.92;;;;;;;;;;5054291;28;20086;-77
2022/03/24 04:13:24;;;;;;;20.77;17.50;;;;;;;;;;5053010;28;20049;-78
2022/03/24 04:15:52;;;;;;;20.70;16.90;;;;;;;;;;5054353;28;20440;-77
2022/03/24 04:18:18;;;;;;;22.58;16.90;;;;;;;;;;5054194;28;20119;-76
2022/03/24 04:20:45;;;;;;;20.38;16.30;;;;;;;;;;5054157;28;20096;-76
2022/03/24 04:23:11;;;;;;;23.33;16.88;;;;;;;;;;5054164;28;20115;-76
2022/03/24 04:25:38;;;;;;;20.67;15.38;;;;;;;;;;5053921;28;20094;-76
2022/03/24 04:28:05;;;;;;;22.63;16.88;;;;;;;;;;5053794;28;20075;-77
2022/03/24 04:30:33;;;;;;;21.98;16.50;;;;;;;;;;5054040;28;20045;-76
2022/03/24 04:32:59;;;;;;;19.58;16.10;;;;;;;;;;5053550;28;20057;-76
2022/03/24 04:35:26;;;;;;;22.55;17.70;;;;;;;;;;5053905;28;20099;-76
2022/03/24 04:37:53;;;;;;;23.05;17.17;;;;;;;;;;5053828;28;20060;-77
2022/03/24 04:40:20;;;;;;;20.30;15.95;;;;;;;;;;5053676;28;20053;-77
2022/03/24 04:42:49;;;;;;;21.60;17.02;;;;;;;;;;5052503;28;20439;-77
2022/03/24 04:45:17;;;;;;;22.30;16.65;;;;;;;;;;5053695;28;20091;-77
2022/03/24 04:47:44;;;;;;;22.00;16.60;;;;;;;;;;5053564;28;20052;-77
2022/03/24 04:50:10;;;;;;;22.55;16.20;;;;;;;;;;5053772;28;20473;-77
2022/03/24 04:52:37;;;;;;;20.00;15.68;;;;;;;;;;5053291;28;20057;-77
2022/03/24 04:55:04;;;;;;;21.27;16.40;;;;;;;;;;5053295;28;20045;-77
2022/03/24 04:57:31;;;;;;;21.58;17.25;;;;;;;;;;5052024;28;20569;-77
2022/03/24 04:59:57;;;;;;;19.23;16.25;;;;;;;;;;5051837;28;20053;-77
2022/03/24 05:02:24;;;;;;;20.92;15.50;;;;;;;;;;5053198;28;20045;-77
2022/03/24 05:04:52;;;;;;;19.30;14.77;;;;;;;;;;5051900;28;20580;-76
2022/03/24 05:07:19;;;;;;;17.65;14.68;;;;;;;;;;5053260;28;20079;-77
2022/03/24 05:09:45;;;;;;;17.98;14.85;;;;;;;;;;5053338;28;20053;-76
2022/03/24 05:12:12;;;;;;;19.63;15.02;;;;;;;;;;5052982;28;20045;-76
2022/03/24 05:14:38;;;;;;;18.02;14.38;;;;;;;;;;5053190;28;20041;-77
2022/03/24 05:17:06;;;;;;;19.02;15.00;;;;;;;;;;5052854;28;20539;-77
2022/03/24 05:19:32;;;;;;;19.92;15.68;;;;;;;;;;5051867;28;20052;-77
2022/03/24 05:22:00;;;;;;;20.10;14.35;;;;;;;;;;5052750;28;20076;-77
2022/03/24 05:24:27;;;;;;;21.83;15.02;;;;;;;;;;5051538;28;20562;-77
2022/03/24 05:26:53;;;;;;;21.00;15.63;;;;;;;;;;5052618;28;20564;-77
2022/03/24 05:29:19;;;;;;;21.08;15.93;;;;;;;;;;5052680;28;20378;-76
2022/03/24 05:31:46;;;;;;;20.65;15.10;;;;;;;;;;5052639;28;20064;-77
2022/03/24 05:34:13;;;;;;;19.00;15.27;;;;;;;;;;5051528;28;20099;-77
2022/03/24 05:36:39;;;;;;;21.92;15.75;;;;;;;;;;5052836;28;20107;-77
2022/03/24 05:39:06;;;;;;;21.67;16.52;;;;;;;;;;5052453;28;20412;-77
2022/03/24 05:41:32;;;;;;;20.08;15.15;;;;;;;;;;5052700;28;20470;-77
2022/03/24 05:44:06;;;;;;;21.98;15.70;;;;;;;;;;5051017;28;20048;-77
2022/03/24 05:46:44;;;;;;;21.13;15.73;;;;;;;;;;5052586;28;20077;-77
2022/03/24 05:49:15;;;;;;;20.30;15.82;;;;;;;;;;5052581;28;20403;-76
2022/03/24 05:51:42;;;;;;;22.95;15.95;;;;;;;;;;5052132;28;20087;-77
2022/03/24 05:54:09;;;;;;;19.57;15.43;;;;;;;;;;5052183;28;20049;-77
2022/03/24 05:56:36;;;;;;;22.58;16.23;;;;;;;;;;5052068;28;20551;-77
2022/03/24 05:59:02;;;;;;;23.92;16.05;;;;;;;;;;5052812;28;20048;-77
2022/03/24 06:01:29;;;;;;;20.23;15.82;;;;;;;;;;5051948;28;20045;-77
2022/03/24 06:03:57;;;;;;;20.23;15.48;;;;;;;;;;5050867;28;20056;-77
2022/03/24 06:06:25;;;;;;;;;;;;;;;;;;5052463;28;20045;-77
2022/03/24 06:08:57;;;;;;;20.73;15.73;;;;;;;;;;5052179;28;19928;-78
2022/03/24 06:11:24;;;;;;;24.13;15.93;;;;;;;;;;5050736;28;20049;-77
2022/03/24 06:13:51;;;;;;;19.20;15.13;;;;;;;;;;5052004;28;20056;-77
2022/03/24 06:16:18;;;;;;;22.58;15.65;;;;;;;;;;5051988;28;20398;-77
2022/03/24 06:18:45;;;;;;;22.45;15.38;;;;;;;;;;5050361;28;20047;-77
2022/03/24 06:21:13;;;;;;;22.08;15.20;;;;;;;;;;5050445;28;20451;-77
2022/03/24 06:23:40;;;;;;;;;;;;;;;;;;5051185;28;20397;-77
2022/03/24 06:26:06;;;;;;;19.92;14.32;;;;;;;;;;5042210;28;20659;-77
2022/03/24 06:28:32;;;;;;;18.10;15.00;;;;;;;;;;5046628;28;20056;-77
2022/03/24 06:31:00;;;;;;;17.73;14.23;;;;;;;;;;5051465;28;20094;-75
2022/03/24 06:33:27;;;;;;;20.33;15.10;;;;;;;;;;5051609;28;20053;-77
2022/03/24 06:35:53;;;;;;;20.48;15.55;;;;;;;;;;5050478;28;20048;-74
2022/03/24 06:38:20;;;;;;;20.27;15.02;;;;;;;;;;5051853;28;20124;-75
2022/03/24 06:40:46;;;;;;;18.88;14.85;;;;;;;;;;5050147;28;20044;-78
2022/03/24 06:43:13;;;;;;;18.27;15.02;;;;;;;;;;5051770;28;20053;-78
2022/03/24 06:45:39;;;;;;;20.58;15.13;;;;;;;;;;5051641;28;20460;-77
2022/03/24 06:48:09;;;;;;;18.05;15.18;;;;;;;;;;5051733;28;20458;-77
2022/03/24 06:50:36;;;;;;;19.15;14.43;;;;;;;;;;5051472;28;20519;-77
2022/03/24 06:53:02;;;;;;;19.15;15.43;;;;;;;;;;5030593;28;20073;-74
2022/03/24 06:55:29;;;;;;;19.73;14.60;;;;;;;;;;5031343;28;20119;-74
2022/03/24 06:57:56;;;;;;;20.77;15.00;;;;;;;;;;5035528;28;20390;-75
2022/03/24 07:00:23;;;;;;;20.80;14.55;;;;;;;;;;5031190;28;20091;-74
2022/03/24 07:02:50;;;;;;;22.87;16.20;;;;;;;;;;5031268;28;20049;-75
2022/03/24 07:05:16;;;;;;;21.17;15.90;;;;;;;;;;5039030;28;20041;-76
2022/03/24 07:07:43;;;;;;;21.70;16.35;;;;;;;;;;5040370;28;20077;-75
2022/03/24 07:10:10;;;;;;;22.97;15.67;;;;;;;;;;5034914;28;20497;-76
2022/03/24 07:12:36;;;;;;;20.85;15.23;;;;;;;;;;5029847;28;20076;-74
2022/03/24 07:15:04;;;;;;;20.90;15.63;;;;;;;;;;5046246;28;20448;-78
2022/03/24 07:17:30;;;;;;;23.00;16.60;;;;;;;;;;5050751;28;20079;-78
2022/03/24 07:19:57;;;;;;;22.00;16.40;;;;;;;;;;5049081;28;20041;-77
2022/03/24 07:22:23;;;;;;;20.45;16.05;;;;;;;;;;5030995;28;20084;-76
2022/03/24 07:24:50;;;;;;;18.98;14.15;;;;;;;;;;5030797;28;20493;-77
2022/03/24 07:27:16;;;;;;;17.42;14.75;;;;;;;;;;5030537;28;20049;-76
2022/03/24 07:29:43;;;;;;;21.58;16.48;;;;;;;;;;5046119;28;20041;-74
2022/03/24 07:32:09;;;;;;;20.23;15.50;;;;;;;;;;5053709;28;20057;-74
2022/03/24 07:34:36;;;;;;;19.88;15.32;;;;;;;;;;5054779;28;20079;-74
2022/03/24 07:37:04;;;;;;;21.15;15.45;;;;;;;;;;5055135;28;20052;-74
2022/03/24 07:39:31;;;;;;;20.40;15.05;;;;;;;;;;5040117;28;20052;-74
2022/03/24 07:41:58;;;;;;;22.42;16.08;;;;;;;;;;5049329;28;20045;-79
2022/03/24 07:44:24;;;;;;;23.13;16.20;;;;;;;;;;5049650;28;20463;-76
2022/03/24 07:46:51;;;;;;;22.60;15.95;;;;;;;;;;5054212;28;20497;-78
2022/03/24 07:49:17;;;;;;;20.75;16.52;;;;;;;;;;5044887;28;20096;-74
2022/03/24 07:51:44;;;;;;;19.83;16.02;;;;;;;;;;5048318;28;20053;-75
2022/03/24 07:54:11;;;;;;;20.60;16.25;;;;;;;;;;5053322;28;20045;-75
2022/03/24 07:56:37;;;;;;;21.50;16.73;;;;;;;;;;5053003;28;20550;-75
2022/03/24 07:59:05;;;;;;;19.00;15.65;;;;;;;;;;5053829;28;20122;-75
2022/03/24 08:01:32;;;;;;;20.90;15.35;;;;;;;;;;5054310;28;20053;-75
2022/03/24 08:04:00;;;;;;;18.75;15.50;;;;;;;;;;5054240;28;20053;-75
2022/03/24 08:06:27;;;;;;;;;;;;;;;;;;5053202;28;20080;-75
2022/03/24 08:08:54;;;;;;;18.70;15.60;;;;;;;;;;5054641;28;19975;-75
2022/03/24 08:11:22;;;;;;;18.53;15.77;;;;;;;;;;5054413;28;20052;-75
2022/03/24 08:13:53;;;;;;;19.50;15.40;;;;;;;;;;5054332;28;20048;-75
2022/03/24 08:16:21;;;;;;;24.85;15.82;;;;;;;;;;5054097;28;20048;-75
2022/03/24 08:18:48;;;;;;;18.10;15.07;;;;;;;;;;5054360;28;20049;-75
2022/03/24 08:21:14;;;;;;;20.65;16.27;;;;;;;;;;5053759;28;20060;-75
2022/03/24 08:23:41;;;;;;;18.25;15.05;;;;;;;;;;5052757;28;20056;-75
2022/03/24 08:26:07;;;;;;;20.95;15.88;;;;;;;;;;5054087;28;20049;-75
2022/03/24 08:28:33;;;;;;;17.48;15.50;;;;;;;;;;5054183;28;20114;-75
2022/03/24 08:31:00;;;;;;;20.33;16.15;;;;;;;;;;5053421;28;20076;-75
2022/03/24 08:33:27;;;;;;;15.93;14.23;;;;;;;;;;5053686;28;20551;-75
2022/03/24 08:35:54;;;;;;;17.05;15.25;;;;;;;;;;5054005;28;20114;-75
2022/03/24 08:38:21;;;;;;;20.83;15.50;;;;;;;;;;5053663;28;20041;-75
2022/03/24 08:40:47;;;;;;;20.33;15.25;;;;;;;;;;5053870;28;20094;-75
2022/03/24 08:43:14;;;;;;;16.40;14.70;;;;;;;;;;5053584;28;20052;-75
2022/03/24 08:45:41;;;;;;;18.27;14.63;;;;;;;;;;5053875;28;20056;-75
2022/03/24 08:48:07;;;;;;;17.80;14.88;;;;;;;;;;5053707;28;20361;-75
2022/03/24 08:50:34;;;;;;;16.65;14.95;;;;;;;;;;5053802;28;20122;-75
2022/03/24 08:53:03;;;;;;;18.27;14.52;;;;;;;;;;5053302;28;20488;-76
2022/03/24 08:55:29;;;;;;;16.38;14.68;;;;;;;;;;5053335;28;20065;-75
2022/03/24 08:57:56;;;;;;;15.43;13.93;;;;;;;;;;5053201;28;20103;-75
2022/03/24 09:00:23;;;;;;;16.30;14.60;;;;;;;;;;5053292;28;20523;-76
2022/03/24 09:02:50;;;;;;;16.15;14.05;;;;;;;;;;5053266;28;20045;-75
2022/03/24 09:05:17;;;;;;;15.60;14.07;;;;;;;;;;5053402;28;20124;-75
2022/03/24 09:07:44;;;;;;;15.98;14.45;;;;;;;;;;5053147;28;20110;-75
2022/03/24 09:10:13;;;;;;;15.52;13.93;;;;;;;;;;5052078;28;20041;-76
2022/03/24 09:12:41;;;;;;;16.75;14.88;;;;;;;;;;5053213;28;20057;-75
2022/03/24 09:15:08;;;;;;;17.77;15.73;;;;;;;;;;5053038;28;20103;-76
2022/03/24 09:17:34;;;;;;;;;;;;;;;;;;5052158;28;20057;-75
2022/03/24 09:20:02;;;;;;;17.25;14.85;;;;;;;;;;5053138;28;19921;-76
2022/03/24 09:22:29;;;;;;;18.17;14.88;;;;;;;;;;5053016;28;20041;-75
2022/03/24 09:24:57;;;;;;;19.25;16.13;;;;;;;;;;5052789;28;20052;-75
2022/03/24 09:27:23;;;;;;;17.67;15.77;;;;;;;;;;5037410;28;20550;-75
2022/03/24 09:29:50;;;;;;;18.15;16.17;;;;;;;;;;5052652;28;20554;-76
2022/03/24 09:32:16;;;;;;;19.45;17.15;;;;;;;;;;5052441;28;20083;-76
2022/03/24 09:34:43;;;;;;;21.23;18.08;;;;;;;;;;5051666;28;20053;-76
2022/03/24 09:37:17;;;;;;;18.10;16.17;;;;;;;;;;5052459;28;20507;-76
2022/03/24 09:39:44;;;;;;;19.33;16.52;;;;;;;;;;5051566;28;20049;-76
2022/03/24 09:42:12;;;;;;;20.40;17.50;;;;;;;;;;5052610;28;20107;-75
2022/03/24 09:44:40;;;;;;;20.45;16.95;;;;;;;;;;5052394;28;20098;-76
2022/03/24 09:47:08;;;;;;;19.27;17.27;;;;;;;;;;5052237;28;20451;-75
2022/03/24 09:49:35;;;;;;;18.83;16.65;;;;;;;;;;5052225;28;20130;-76
2022/03/24 09:52:02;;;;;;;19.17;17.27;;;;;;;;;;5052642;28;20045;-75
2022/03/24 09:54:28;;;;;;;19.23;16.80;;;;;;;;;;5051394;28;20049;-76
2022/03/24 09:56:55;;;;;;;19.20;17.13;;;;;;;;;;5052119;28;20500;-76
2022/03/24 09:59:21;;;;;;;19.63;16.58;;;;;;;;;;5052115;28;20500;-76
2022/03/24 10:01:47;;;;;;;19.17;17.20;;;;;;;;;;5050968;28;20045;-76
2022/03/24 10:04:14;;;;;;;18.92;16.50;;;;;;;;;;5052353;28;20045;-76
2022/03/24 10:06:57;;;;;;;20.67;17.05;;;;;;;;;;5052139;28;20049;-76
2022/03/24 10:09:36;;;;;;;18.58;16.65;;;;;;;;;;5052103;28;20094;-76
2022/03/24 10:12:03;;;;;;;18.98;17.08;;;;;;;;;;5052093;28;20134;-76
2022/03/24 10:14:30;;;;;;;20.60;16.40;;;;;;;;;;5051799;28;20056;-76
2022/03/24 10:17:07;;;;;;;21.67;16.30;;;;;;;;;;5052140;28;20041;-76
2022/03/24 10:19:34;;;;;;;;;;;;;;;;;;5052502;28;20102;-76
2022/03/24 10:22:06;;;;;;;17.88;16.08;;;;;;;;;;5051953;28;19928;-76
2022/03/24 10:24:38;;;;;;;17.90;14.93;;;;;;;;;;5050474;28;20041;-76
2022/03/24 10:27:04;;;;;;;18.20;16.38;;;;;;;;;;5051645;28;20080;-76
2022/03/24 10:29:32;;;;;;;17.50;15.70;;;;;;;;;;5051706;28;20049;-76
2022/03/24 10:31:59;;;;;;;16.50;14.90;;;;;;;;;;5051545;28;20110;-76
2022/03/24 10:34:29;;;;;;;17.13;15.32;;;;;;;;;;5051858;28;20049;-75
2022/03/24 10:36:56;;;;;;;17.20;15.48;;;;;;;;;;5051838;28;20114;-76
2022/03/24 10:39:22;;;;;;;;;;;;;;;;;;5052173;28;20041;-76
2022/03/24 10:41:49;;;;;;;;;;;;;;;;;;5052191;28;19966;-76
2022/03/24 10:44:15;;;;;;;;;;;;;;;;;;5051817;28;20344;-76
2022/03/24 10:46:42;;;;;;;;;;;;;;;;;;5051804;28;19955;-76
2022/03/24 10:49:30;;;;;;;13.63;12.32;;;;;;;;;;5050482;28;19975;-76
2022/03/24 10:51:56;;;;;;;14.50;12.98;;;;;;;;;;5051322;28;20049;-76
2022/03/24 10:54:46;;;;;;;14.88;13.48;;;;;;;;;;5051444;28;20052;-76
2022/03/24 10:57:13;;;;;;;16.30;12.77;;;;;;;;;;5051559;28;20057;-76
2022/03/24 10:59:41;;;;;;;14.55;13.05;;;;;;;;;;5051256;28;20562;-76
2022/03/24 11:02:09;;;;;;;15.90;11.82;;;;;;;;;;5051267;28;20554;-76
2022/03/24 11:04:35;;;;;;;13.48;11.75;;;;;;;;;;5052012;28;20574;-76
2022/03/24 11:07:02;;;;;;;12.27;11.07;;;;;;;;;;5055590;28;20041;-76
2022/03/24 11:09:28;;;;;;;;;;;;;;;;;;5056010;28;20074;-76
2022/03/24 11:12:13;;;;;;;12.57;11.38;;;;;;;;;;5055552;28;19920;-76
2022/03/24 11:14:42;;;;;;;12.70;11.27;;;;;;;;;;5055828;28;20057;-76
2022/03/24 11:17:08;;;;;;;12.00;10.70;;;;;;;;;;5055333;28;20044;-76
2022/03/24 11:19:35;;;;;;;11.70;10.50;;;;;;;;;;5053915;28;20056;-76
2022/03/24 11:22:01;;;;;;;;;;;;;;;;;;5055584;28;20037;-76
2022/03/24 11:24:28;;;;;;;12.50;11.20;;;;;;;;;;5055387;28;19921;-76
2022/03/24 11:26:54;;;;;;;12.57;11.38;;;;;;;;;;5055279;28;20045;-76
2022/03/24 11:29:21;;;;;;;12.02;10.57;;;;;;;;;;5055239;28;20049;-76
2022/03/24 11:31:47;;;;;;;12.45;10.73;;;;;;;;;;5053718;28;20113;-76
2022/03/24 11:34:14;;;;;;;12.15;11.07;;;;;;;;;;5055028;28;20086;-76
2022/03/24 11:36:41;;;;;;;;;;;;;;;;;;5055582;28;20111;-76
2022/03/24 11:39:11;;;;;;;12.75;11.25;;;;;;;;;;5054848;28;19940;-76
2022/03/24 11:41:44;;;;;;;12.25;10.98;;;;;;;;;;5054804;28;20048;-76
2022/03/24 11:44:17;;;;;;;15.98;11.50;;;;;;;;;;5054832;28;20192;-76
2022/03/24 11:46:54;;;;;;;12.07;10.75;;;;;;;;;;5054794;28;20091;-76
2022/03/24 11:49:25;;;;;;;11.63;10.43;;;;;;;;;;5054788;28;20094;-76
2022/03/24 11:51:57;;;;;;;11.57;10.38;;;;;;;;;;5054742;28;20102;-76
2022/03/24 11:54:25;;;;;;;11.23;10.23;;;;;;;;;;5054742;28;20049;-76
2022/03/24 11:57:11;;;;;;;11.90;10.52;;;;;;;;;;5054657;28;20110;-76
2022/03/24 11:59:37;;;;;;;12.38;11.18;;;;;;;;;;5054720;28;20485;-76
2022/03/24 12:02:14;;;;;;;12.73;11.45;;;;;;;;;;5054472;28;20091;-76
2022/03/24 12:04:57;;;;;;;12.52;11.23;;;;;;;;;;5054278;28;20045;-76
2022/03/24 12:07:24;;;;;;;13.20;11.63;;;;;;;;;;5054593;28;20108;-76
2022/03/24 12:09:58;;;;;;;13.98;12.52;;;;;;;;;;5054129;28;20076;-76
2022/03/24 12:12:25;;;;;;;17.13;12.90;;;;;;;;;;5054213;28;20400;-76
2022/03/24 12:14:54;;;;;;;13.93;12.52;;;;;;;;;;5053173;28;20052;-76
2022/03/24 12:17:26;;;;;;;14.77;12.80;;;;;;;;;;5053209;28;20504;-76
2022/03/24 12:19:53;;;;;;;15.65;12.23;;;;;;;;;;5054319;28;20415;-76
2022/03/24 12:22:26;;;;;;;12.90;11.68;;;;;;;;;;5054040;28;20169;-76
2022/03/24 12:25:12;;;;;;;13.13;11.77;;;;;;;;;;5053023;28;20049;-76
2022/03/24 12:27:56;;;;;;;13.15;11.68;;;;;;;;;;5053848;28;20045;-76
2022/03/24 12:30:24;;;;;;;13.05;11.90;;;;;;;;;;5054092;28;20115;-76
2022/03/24 12:33:02;;;;;;;13.93;12.52;;;;;;;;;;5053693;28;20139;-76
2022/03/24 12:35:51;;;;;;;12.68;11.60;;;;;;;;;;5054057;28;20447;-76
2022/03/24 12:38:34;;;;;;;13.35;12.10;;;;;;;;;;5052475;28;20053;-76
2022/03/24 12:41:09;;;;;;;14.23;12.82;;;;;;;;;;5053674;28;20511;-76
2022/03/24 12:43:46;;;;;;;13.52;12.20;;;;;;;;;;5053747;28;20114;-76
2022/03/24 12:46:23;;;;;;;16.23;13.68;;;;;;;;;;5053551;28;20118;-76
2022/03/24 12:48:50;;;;;;;14.27;12.90;;;;;;;;;;5053788;28;20045;-76
2022/03/24 12:51:22;;;;;;;14.38;12.93;;;;;;;;;;5053322;28;20053;-76
2022/03/24 12:53:51;;;;;;;18.30;14.32;;;;;;;;;;5052252;28;20496;-77
2022/03/24 12:56:22;;;;;;;15.60;13.23;;;;;;;;;;5053595;28;20122;-76
2022/03/24 12:58:52;;;;;;;16.50;12.68;;;;;;;;;;5052157;28;20083;-76
2022/03/24 13:01:19;;;;;;;14.60;13.10;;;;;;;;;;5051938;28;20057;-77
2022/03/24 13:03:53;;;;;;;12.55;11.25;;;;;;;;;;5053385;28;20095;-76
2022/03/24 13:06:20;;;;;;;12.98;10.98;;;;;;;;;;5052039;28;20171;-76
2022/03/24 13:09:10;;;;;;;13.02;11.20;;;;;;;;;;5053456;28;20076;-77
2022/03/24 13:11:50;;;;;;;12.68;10.90;;;;;;;;;;5049038;28;20041;-77
2022/03/24 13:14:24;;;;;;;11.50;10.02;;;;;;;;;;5053065;28;20539;-77
2022/03/24 13:17:01;;;;;;;11.45;9.82;;;;;;;;;;5053098;28;20045;-77
2022/03/24 13:19:28;;;;;;;17.13;11.95;;;;;;;;;;5053273;28;20044;-77
2022/03/24 13:21:55;;;;;;;13.95;10.73;;;;;;;;;;5052665;28;20057;-77
2022/03/24 13:24:22;;;;;;;12.90;9.23;;;;;;;;;;5053100;28;20075;-76
2022/03/24 13:27:01;;;;;;;11.35;7.28;;;;;;;;;;5051501;28;20346;-77
2022/03/24 13:29:35;;;;;;;9.82;8.35;;;;;;;;;;5052997;28;20378;-77
2022/03/24 13:32:11;;;;;;;13.05;10.00;;;;;;;;;;5052395;28;20508;-77
2022/03/24 13:34:38;;;;;;;13.40;9.68;;;;;;;;;;5051371;28;20493;-77
2022/03/24 13:37:12;;;;;;;11.93;9.30;;;;;;;;;;5052446;28;20559;-77
2022/03/24 13:39:38;;;;;;;8.65;7.13;;;;;;;;;;5052855;28;20048;-77
2022/03/24 13:42:07;;;;;;;10.48;6.68;;;;;;;;;;5051192;28;20048;-77
2022/03/24 13:44:35;;;;;;;10.05;6.93;;;;;;;;;;5052769;28;20052;-77
2022/03/24 13:47:03;;;;;;;8.85;6.88;;;;;;;;;;5052495;28;20057;-77
2022/03/24 13:49:29;;;;;;;9.10;6.93;;;;;;;;;;5052274;28;20118;-77
2022/03/24 13:51:55;;;;;;;;;;;;;;;;;;5052954;28;20106;-77
2022/03/24 13:54:22;;;;;;;9.18;7.07;;;;;;;;;;5051319;28;19925;-77
2022/03/24 13:56:49;;;;;;;9.52;7.43;;;;;;;;;;5052460;28;20045;-77
2022/03/24 13:59:15;;;;;;;;;;;;;;;;;;5051359;28;20562;-77
2022/03/24 14:01:41;;;;;;;9.45;8.45;;;;;;;;;;5051974;28;20401;-77
2022/03/24 14:04:17;;;;;;;9.68;7.63;;;;;;;;;;5052013;28;20055;-78
2022/03/24 14:07:06;;;;;;;9.82;8.13;;;;;;;;;;5052311;28;20044;-77
2022/03/24 14:09:33;;;;;;;10.60;8.75;;;;;;;;;;5052354;28;20071;-77
2022/03/24 14:12:06;;;;;;;10.68;8.38;;;;;;;;;;5051882;28;20048;-77
2022/03/24 14:14:33;;;;;;;10.68;8.20;;;;;;;;;;5052301;28;20106;-77
2022/03/24 14:17:00;;;;;;;9.55;7.57;;;;;;;;;;5050910;28;20037;-77
2022/03/24 14:19:27;;;;;;;9.18;7.70;;;;;;;;;;5052187;28;20055;-77
2022/03/24 14:21:57;;;;;;;9.38;8.32;;;;;;;;;;5051626;28;20041;-77
2022/03/24 14:24:45;;;;;;;11.68;9.02;;;;;;;;;;5050794;28;20041;-77
2022/03/24 14:27:14;;;;;;;9.15;8.23;;;;;;;;;;5051976;28;20068;-77
2022/03/24 14:29:57;;;;;;;10.32;8.02;;;;;;;;;;5050558;28;20052;-77